Time;durP1;ratioP1;P1;durP2;ratioP2;P2;SDS_P1;SDS_P2;PMS_P1;PMS_P2;Temp;Humidity;BMP_temperature;BMP_pressure;BME280_temperature;BME280_humidity;BME280_pressure;Samples;Min_cycle;Max_cycle;Signal;HPM_P1;HPM_P2
2022/05/01 00:01:42;;;;;;;0.20;0.20;;;10.70;99.90;;;;;;5052802;28;20119;-74
2022/05/01 00:04:08;;;;;;;0.90;0.90;;;10.60;99.90;;;;;;5053357;28;20375;-74
2022/05/01 00:06:35;;;;;;;0.55;0.55;;;10.70;99.90;;;;;;5018698;28;20388;-74
2022/05/01 00:09:02;;;;;;;0.10;0.10;;;10.70;99.90;;;;;;5053227;28;20358;-74
2022/05/01 00:11:29;;;;;;;0.10;0.10;;;10.70;99.90;;;;;;5035161;28;20395;-74
2022/05/01 00:13:57;;;;;;;0.05;0.05;;;10.80;99.90;;;;;;5035212;28;20484;-74
2022/05/01 00:16:23;;;;;;;0.30;0.30;;;10.80;99.90;;;;;;5034847;28;20025;-74
2022/05/01 00:18:49;;;;;;;0.22;0.22;;;10.70;99.90;;;;;;5052960;28;20029;-74
2022/05/01 00:21:14;;;;;;;0.20;0.20;;;10.60;99.90;;;;;;5035041;28;20028;-74
2022/05/01 00:23:40;;;;;;;0.10;0.10;;;10.50;99.90;;;;;;5035037;28;20029;-74
2022/05/01 00:26:07;;;;;;;0.10;0.10;;;10.60;99.90;;;;;;5034809;28;20350;-74
2022/05/01 00:28:35;;;;;;;0.10;0.10;;;10.50;99.90;;;;;;5034357;28;20033;-74
2022/05/01 00:31:02;;;;;;;0.10;0.10;;;10.60;99.90;;;;;;5052701;28;20025;-74
2022/05/01 00:36:27;;;;;;;0.10;0.10;;;10.70;99.90;;;;;;5052462;28;20060;-74
2022/05/01 00:38:53;;;;;;;0.10;0.10;;;10.60;99.90;;;;;;5034789;28;20106;-74
2022/05/01 00:41:23;;;;;;;0.43;0.43;;;10.80;99.90;;;;;;5052489;28;20036;-74
2022/05/01 00:44:00;;;;;;;0.20;0.20;;;10.60;99.90;;;;;;5034476;28;20028;-75
2022/05/01 00:46:26;;;;;;;0.10;0.10;;;10.40;99.90;;;;;;5052193;28;20431;-74
2022/05/01 00:48:52;;;;;;;0.10;0.10;;;10.50;99.90;;;;;;5052411;28;20365;-74
2022/05/01 00:51:20;;;;;;;0.10;0.10;;;10.30;99.90;;;;;;5017976;28;20025;-75
2022/05/01 00:53:50;;;;;;;0.75;0.65;;;10.20;99.90;;;;;;5034406;28;20024;-75
2022/05/01 00:56:17;;;;;;;1.25;0.93;;;10.20;99.90;;;;;;5034092;28;20037;-75
2022/05/01 00:58:43;;;;;;;0.20;0.20;;;10.10;99.90;;;;;;5052220;28;20392;-73
2022/05/01 01:01:11;;;;;;;0.30;0.30;;;10.20;99.90;;;;;;5034392;28;20201;-72
2022/05/01 01:03:37;;;;;;;0.77;0.77;;;10.20;99.90;;;;;;5052232;28;20021;-73
2022/05/01 01:06:03;;;;;;;0.10;0.10;;;10.30;99.90;;;;;;5033933;28;20040;-73
2022/05/01 01:08:28;;;;;;;0.10;0.10;;;10.30;99.90;;;;;;5052051;28;20028;-72
2022/05/01 01:10:54;;;;;;;0.13;0.13;;;10.20;99.90;;;;;;5034175;28;20032;-73
2022/05/01 01:13:27;;;;;;;0.17;0.17;;;10.20;99.90;;;;;;5052030;28;20531;-73
2022/05/01 01:15:56;;;;;;;0.15;0.15;;;10.20;99.90;;;;;;5034029;28;20065;-72
2022/05/01 01:18:23;;;;;;;0.30;0.30;;;10.20;99.90;;;;;;5052032;28;20116;-73
2022/05/01 01:20:51;;;;;;;0.10;0.10;;;10.30;99.90;;;;;;5051867;28;20036;-72
2022/05/01 01:23:17;;;;;;;0.00;0.00;;;10.50;99.90;;;;;;5051884;28;20037;-72
2022/05/01 01:25:43;;;;;;;0.20;0.20;;;10.50;99.90;;;;;;5051655;28;20032;-73
2022/05/01 01:28:09;;;;;;;0.10;0.10;;;10.50;99.90;;;;;;5034045;28;20441;-72
2022/05/01 01:33:21;;;;;;;0.10;0.10;;;10.40;99.90;;;;;;5051808;28;20384;-73
2022/05/01 01:35:49;;;;;;;0.22;0.22;;;10.30;99.90;;;;;;5033583;28;20504;-73
2022/05/01 01:38:16;;;;;;;0.10;0.10;;;10.20;99.90;;;;;;5051756;28;20096;-73
2022/05/01 01:40:47;;;;;;;3.42;2.08;;;10.20;99.90;;;;;;5032755;28;20071;-72
2022/05/01 01:43:13;;;;;;;1.50;1.40;;;10.20;99.90;;;;;;5051446;28;20028;-73
2022/05/01 01:45:39;;;;;;;0.10;0.10;;;10.20;99.90;;;;;;5051405;28;20499;-73
2022/05/01 01:48:13;;;;;;;0.95;0.47;;;10.20;99.90;;;;;;5051506;28;20017;-73
2022/05/01 01:50:40;;;;;;;1.63;1.10;;;10.30;99.90;;;;;;5051612;28;20184;-73
2022/05/01 01:53:06;;;;;;;3.30;1.65;;;10.10;99.90;;;;;;5051668;28;20476;-73
2022/05/01 01:55:32;;;;;;;1.90;1.75;;;10.20;99.90;;;;;;5051322;28;20093;-73
2022/05/01 01:57:58;;;;;;;0.40;0.40;;;10.20;99.90;;;;;;5051481;28;20135;-73
2022/05/01 02:00:24;;;;;;;0.10;0.10;;;10.20;99.90;;;;;;5033627;28;20167;-73
2022/05/01 02:02:58;;;;;;;0.10;0.10;;;10.10;99.90;;;;;;5051267;28;20047;-73
2022/05/01 02:05:25;;;;;;;0.28;0.28;;;10.20;99.90;;;;;;5051943;28;20029;-73
2022/05/01 02:07:51;;;;;;;0.13;0.13;;;10.30;99.90;;;;;;5033256;28;20071;-73
2022/05/01 02:10:17;;;;;;;2.53;0.85;;;10.40;99.90;;;;;;5051400;28;20021;-73
2022/05/01 02:12:43;;;;;;;3.30;2.63;;;10.40;99.90;;;;;;5051390;28;20105;-73
2022/05/01 02:15:09;;;;;;;0.10;0.10;;;10.10;99.90;;;;;;5033515;28;20488;-73
2022/05/01 02:17:35;;;;;;;0.10;0.10;;;10.20;99.90;;;;;;5033474;28;20025;-73
2022/05/01 02:20:01;;;;;;;0.15;0.15;;;10.20;99.90;;;;;;5033394;28;20119;-73
2022/05/01 02:22:27;;;;;;;0.10;0.10;;;10.20;99.90;;;;;;5051163;28;20025;-73
2022/05/01 02:24:54;;;;;;;0.95;0.60;;;10.20;99.90;;;;;;5051287;28;20104;-73
2022/05/01 02:27:20;;;;;;;0.47;0.47;;;10.10;99.90;;;;;;5051254;28;20028;-73
2022/05/01 02:29:46;;;;;;;0.10;0.10;;;10.10;99.90;;;;;;5033371;28;20025;-73
2022/05/01 02:32:12;;;;;;;1.23;1.00;;;10.10;99.90;;;;;;5051271;28;20025;-73
2022/05/01 02:34:39;;;;;;;0.88;0.65;;;10.00;99.90;;;;;;5051259;28;20022;-73
2022/05/01 02:37:06;;;;;;;0.10;0.10;;;10.00;99.90;;;;;;5032938;28;20025;-73
2022/05/01 02:39:33;;;;;;;0.10;0.10;;;10.00;99.90;;;;;;5051183;28;20112;-73
2022/05/01 02:41:59;;;;;;;0.10;0.10;;;10.00;99.90;;;;;;5033346;28;20040;-73
2022/05/01 02:44:25;;;;;;;0.10;0.10;;;10.10;99.90;;;;;;5051036;28;20021;-73
2022/05/01 02:46:51;;;;;;;0.00;0.00;;;10.10;99.90;;;;;;5050871;28;20100;-73
2022/05/01 02:49:16;;;;;;;0.60;0.60;;;10.20;99.90;;;;;;5033169;28;20032;-73
2022/05/01 02:51:42;;;;;;;0.65;0.65;;;10.30;99.90;;;;;;5052777;28;20118;-73
2022/05/01 02:54:08;;;;;;;0.13;0.13;;;10.40;99.90;;;;;;5036870;28;20086;-73
2022/05/01 02:56:34;;;;;;;0.10;0.10;;;10.40;99.90;;;;;;5036287;28;20072;-73
2022/05/01 02:59:01;;;;;;;0.20;0.20;;;10.30;99.90;;;;;;5054487;28;20025;-73
2022/05/01 03:01:29;;;;;;;3.60;1.17;;;10.30;99.90;;;;;;5054302;28;20504;-73
2022/05/01 03:03:55;;;;;;;0.93;0.38;;;10.30;99.90;;;;;;5036640;28;20075;-73
2022/05/01 03:06:21;;;;;;;0.85;0.85;;;10.20;99.90;;;;;;5054026;28;20021;-73
2022/05/01 03:08:47;;;;;;;0.00;0.00;;;10.30;99.90;;;;;;5054406;28;20025;-73
2022/05/01 03:11:13;;;;;;;0.88;0.77;;;10.20;99.90;;;;;;5036615;28;20025;-75
2022/05/01 03:13:39;;;;;;;0.20;0.20;;;10.20;99.90;;;;;;5054286;28;20025;-73
2022/05/01 03:16:05;;;;;;;0.35;0.35;;;10.00;99.90;;;;;;5035945;28;20120;-73
2022/05/01 03:25:05;;;;;;;2.72;1.55;;;9.90;99.90;;;;;;5052058;28;20546;-91
2022/05/01 03:27:37;;;;;;;0.15;0.15;;;9.90;99.90;;;;;;5018496;28;20119;-91
2022/05/01 03:30:19;;;;;;;0.75;0.75;;;9.90;99.90;;;;;;5020923;28;20024;-92
2022/05/01 03:33:27;;;;;;;0.30;0.30;;;10.00;99.90;;;;;;5034494;28;20114;-92
2022/05/01 03:36:53;;;;;;;0.10;0.10;;;9.90;99.90;;;;;;5039738;28;20484;-92
2022/05/01 03:39:27;;;;;;;0.32;0.32;;;9.90;99.90;;;;;;5023675;28;20025;-91
2022/05/01 03:42:22;;;;;;;10.63;1.02;;;9.90;99.90;;;;;;5019859;28;20041;-91
2022/05/01 03:45:40;;;;;;;;;;;;;;;;;;;;;
2022/05/01 03:48:12;;;;;;;0.00;0.00;;;10.00;99.90;;;;;;5036493;28;20037;-92
2022/05/01 03:51:09;;;;;;;1.13;0.98;;;10.10;99.90;;;;;;5037631;28;20048;-92
2022/05/01 03:53:45;;;;;;;0.10;0.10;;;10.00;99.90;;;;;;5025800;28;20021;-92
2022/05/01 03:56:21;;;;;;;2.30;0.82;;;9.90;99.90;;;;;;5023571;28;20025;-92
